# Land Stadt Wetter Temperatur Luftdruck Luftfeuchtigkeit Sichtweite Windgeschwindigkeit Windrichtung Ortszeit
1 us Las Vegas Clouds 38 1013 10 16093 11 260 02.08.2018 14:21
2 sa Riad Clear 37 1004 11 10000 22 320 02.08.2018 14:21
3 us Denver Clouds 24 1023 17 16093 5 210 02.08.2018 14:21
4 ae Dubai Clear 37 996 18 10000 8 150 02.08.2018 14:21
5 us Death Valley Clear 28 1010 18 0 2 235 02.08.2018 14:22
6 af Kabul Clear 28 1012 20 10000 13 350 02.08.2018 14:21
7 iq Bagdad Clear 37 999 20 10000 18 330 02.08.2018 14:22
8 us Tucson Clear 36 1014 22 16093 18 300 02.08.2018 14:21
9 ru Werchojansk Clouds 27 1010 23 0 9 94 02.08.2018 14:22
10 mn Uliastai Clear 23 1001 25 0 5 241 02.08.2018 14:23
11 au Darwin Clouds 33 1010 31 10000 21 110 02.08.2018 14:22
12 au Alice Springs Clear 17 1022 36 10000 18 160 02.08.2018 14:21
13 us Nome Clear 21 1009 37 16093 24 360 02.08.2018 14:23
14 us Fairbanks Clear 16 1008 37 16093 18 40 02.08.2018 14:23
15 cn Lhasa Rain 21 1002 40 0 4 183 02.08.2018 14:22
16 in Jagatsukh Rain 24 1004 44 0 11 200 02.08.2018 14:22
17 au Perth Clear 16 1028 47 10000 18 50 02.08.2018 14:21
18 tr Ankara Clear 18 1017 48 10000 2 0 02.08.2018 14:23
19 ru Surgut Clear 23 1007 49 10000 18 260 02.08.2018 14:23
20 gr Athen Clear 24 1012 50 10000 21 330 02.08.2018 14:22
21 qa Doha Clear 38 996 50 10000 9 50 02.08.2018 14:23
22 kr Seoul Clouds 30 1006 51 10000 13 40 02.08.2018 14:21
23 th Bangkok Clouds 34 1006 52 0 2 173 02.08.2018 14:21
24 us Honolulu Clouds 26 1016 54 16093 22 70 02.08.2018 14:22
25 id Jakarta Haze 33 1009 55 5000 21 50 02.08.2018 14:22
26 ma Marrakesch Clouds 23 1010 56 8000 8 260 02.08.2018 14:23
27 es Madrid Clear 22 1018 56 10000 5 30 02.08.2018 14:23
28 tr Alanya Clear 21 1012 56 7000 8 270 02.08.2018 14:22
29 bo La Paz Clear 0 1037 58 10000 5 20 02.08.2018 14:22
30 vn Hanoi Clouds 32 1003 59 10000 13 300 02.08.2018 14:21
31 mx Mexiko Stadt Clouds 18 1030 59 14484 33 30 02.08.2018 14:21
32 ru Moskau Clouds 19 1019 59 10000 14 180 02.08.2018 14:22
33 mn Ulaanbaatar Clouds 19 1006 59 10000 11 330 02.08.2018 14:23
34 bo Potisi Clear -1 1019 59 0 7 267 02.08.2018 14:22
35 ru Jakutsk Clouds 23 1009 60 10000 7 140 02.08.2018 14:22
36 ua Kiew Clear 23 1019 60 10000 7 150 02.08.2018 14:21
37 us Chicago Clear 24 1013 64 16093 13 290 02.08.2018 14:23
38 ph Manila Clouds 33 1008 66 10000 18 270 02.08.2018 14:21
39 za Kapstadt Clouds 11 1017 66 10000 9 210 02.08.2018 14:22
40 no Oslo Clouds 12 986 67 0 3 321 02.08.2018 14:23
41 us Los Angeles Clear 22 1014 68 16093 7 212 02.08.2018 14:22
42 es Barcelona Clear 23 1016 68 10000 17 320 02.08.2018 14:22
43 it Rom Clouds 21 1015 68 10000 4 360 02.08.2018 14:23
44 es Sevilla Clear 22 1011 68 10000 8 30 02.08.2018 14:22
45 pe Cusco Clear 8 1021 68 0 4 289 02.08.2018 14:23
46 ru Amderma Clouds 11 1006 68 0 28 93 02.08.2018 14:23
47 ca Montreal Clouds 27 1009 69 14484 13 130 02.08.2018 14:22
48 tr Istanbul Clouds 24 1014 69 10000 26 50 02.08.2018 14:23
49 gb London Clouds 12 1025 71 10000 9 300 02.08.2018 14:22
50 de Frankfurt Clouds 14 1021 71 10000 9 360 02.08.2018 14:22
51 de Helgoland Rain 13 1019 71 10000 15 290 02.08.2018 14:22
52 bg Sofia Clear 17 1019 72 10000 9 150 02.08.2018 14:21
53 ru Anadyr Clouds 17 1014 72 10000 18 110 02.08.2018 14:23
54 eg Kairo Clouds 25 1010 73 10000 17 360 02.08.2018 14:22
55 es Las Palmas de Gran Canaria Clouds 21 1011 73 10000 44 10 02.08.2018 14:21
56 nz Wellington Clear 10 1016 76 10000 30 10 02.08.2018 14:23
57 ar Buenos Aires Clouds 8 1015 76 10000 9 220 02.08.2018 14:22
58 it Palermo Clear 24 999 77 0 2 267 02.08.2018 14:22
59 br Rio de Janeiro Clear 18 1020 77 10000 8 100 02.08.2018 14:22
60 in Nagpur Haze 28 1006 78 3000 15 280 02.08.2018 14:21
61 fr Nizza Clouds 22 1014 78 10000 11 330 02.08.2018 14:22
62 br Manaus Clouds 25 1013 78 10000 4 340 02.08.2018 14:21
63 fj Suva Clouds 25 1012 78 10000 15 140 02.08.2018 14:21
64 pg Port Moresby Clouds 27 1008 79 0 32 146 02.08.2018 14:21
65 de Flensburg Clear 12 1017 81 10000 21 280 02.08.2018 14:21
66 uy Montevideo Clouds 9 1013 81 10000 22 240 02.08.2018 14:22
67 is Reykjavik Clouds 10 1011 81 10000 13 80 02.08.2018 14:22
68 fr Paris Clear 12 1024 81 10000 2 0 02.08.2018 14:22
69 pt Lissabon Clear 18 1012 82 10000 24 320 02.08.2018 14:22
70 au Sydney Rain 15 1014 82 10000 13 300 02.08.2018 14:22
71 et Addis Abeba Clouds 15 1027 82 10000 4 70 02.08.2018 14:23
72 fr Bordeaux Clear 16 1021 82 10000 13 360 02.08.2018 14:21
73 at Wien Clouds 20 1016 82 10000 13 320 02.08.2018 14:22
74 it Mailand Rain 22 1013 83 10000 4 270 02.08.2018 14:21
75 mx Veracruz Clouds 29 1016 83 9656 9 50 02.08.2018 14:21
76 us Miami Clouds 27 1016 83 16093 11 210 02.08.2018 14:23
77 bs Nassau Clouds 28 1016 83 10000 17 230 02.08.2018 14:22
78 in Mumbai Haze 30 1005 84 3000 22 220 02.08.2018 14:22
79 mv Male Clouds 30 1009 84 10000 15 190 02.08.2018 14:23
80 de Magdeburg Clear 11 1020 86 0 6 261 02.08.2018 14:22
81 de Hannover Clear 11 1021 87 10000 8 260 02.08.2018 14:21
82 de Berlin Clouds 12 1020 87 10000 11 270 02.08.2018 14:21
83 mg Antananarivo Rain 14 1025 87 10000 11 140 02.08.2018 14:21
84 fi Rovaniemi Clouds 10 1007 87 10000 11 360 02.08.2018 14:21
85 no Hammerfest Clouds 9 1007 87 10000 17 210 02.08.2018 14:22
86 de Dresden Clouds 13 1021 87 10000 5 310 02.08.2018 14:22
87 de Torfhaus Clouds 11 1024 87 0 5 269 02.08.2018 14:22
88 gl Nuuk Clouds 6 1013 87 0 13 20 02.08.2018 14:22
89 cn Peking Rain 26 1008 88 3500 4 0 02.08.2018 14:23
90 ar Esquel Snow 2 1004 88 0 24 282 02.08.2018 14:22
91 es Tarifa Clear 23 1013 88 10000 15 50 02.08.2018 14:21
92 jp Nagasaki Rain 26 1007 88 10000 5 280 02.08.2018 14:21
93 bg Warna Clear 21 1017 88 10000 4 0 02.08.2018 14:21
94 es Palma de Mallorca Clear 23 1015 88 10000 22 50 02.08.2018 14:22
95 ck Avarua Rain 23 1015 88 10000 9 100 02.08.2018 14:22
96 de Hiddensee Clear 11 1021 89 0 3 292 02.08.2018 14:21
97 ec San Cristobal Clouds 19 1015 89 0 18 148 02.08.2018 14:22
98 de Freiburg Rain 15 1020 89 0 6 312 02.08.2018 14:22
99 ad Andorra la Vella Clear 13 1016 92 0 4 1 02.08.2018 14:22
100 de Emden Rain 12 1021 92 0 5 208 02.08.2018 14:21
101 fi Helsinki Rain 13 1002 93 10000 18 40 02.08.2018 14:21
102 at Innsbruck Clouds 15 1018 93 10000 5 100 02.08.2018 14:23
103 de Köln Clouds 12 1022 93 10000 2 60 02.08.2018 14:21
104 de Kassel Clouds 10 1021 93 10000 9 300 02.08.2018 14:21
105 cl Santiago Mist 8 1020 93 4700 4 140 02.08.2018 14:23
106 de Nürnberg Clouds 14 1020 93 10000 9 340 02.08.2018 14:21
107 de Hamburg Rain 11 1020 93 10000 9 230 02.08.2018 14:21
108 de Bremen Rain 10 1021 93 10000 9 260 02.08.2018 14:22
109 gb Glasgow Clouds 10 1023 93 10000 9 280 02.08.2018 14:21
110 ke Nairobi Clear 10 1022 93 10000 9 300 02.08.2018 14:22
111 gb Manchester Rain 11 1025 93 6000 8 310 02.08.2018 14:21
112 de Stuttgart Clouds 14 1020 93 10000 15 320 02.08.2018 14:22
113 de Trier Clear 11 1022 93 10000 4 13 02.08.2018 14:21
114 ar Ushuaia Clouds 0 986 94 10000 5 320 02.08.2018 14:22
115 us New York Rain 23 1005 94 6437 8 220 02.08.2018 14:22
116 jp Tokio Mist 27 1004 94 3500 26 190 02.08.2018 14:22
117 cd Kisangani Rain 21 1012 94 0 2 302 02.08.2018 14:23
118 cn Shanghai Clouds 27 1005 94 8000 7 120 02.08.2018 14:21
119 de Braunschweig Clear 10 1018 95 0 2 299 02.08.2018 14:21
120 de München Rain 15 1020 97 0 12 318 02.08.2018 14:21
121 de Oberstdorf Rain 15 1016 97 0 3 157 02.08.2018 14:21
122 ch Andermatt Rain 7 1032 99 0 5 64 02.08.2018 14:23
123 ch Bern Rain 16 1020 100 10000 8 110 02.08.2018 14:23
124 do Santo Domingo Clouds 27 1019 100 0 6 357 02.08.2018 14:21
125 sb Honiara Rain 24 1008 100 0 22 110 02.08.2018 14:22
126 se Stockholm Rain 12 1005 100 10000 9 310 02.08.2018 14:23
127 ie Dublin Clouds 8 1027 100 10000 11 250 02.08.2018 14:21
128 ma Casablanca Mist 19 1011 100 4800 5 70 02.08.2018 14:23